Time;durP1;ratioP1;P1;durP2;ratioP2;P2;SDS_P1;SDS_P2;PMS_P1;PMS_P2;Temp;Humidity;BMP_temperature;BMP_pressure;BME280_temperature;BME280_humidity;BME280_pressure;Samples;Min_cycle;Max_cycle;Signal;HPM_P1;HPM_P2
2023/07/09 00:01:25;;;;;;;5.47;2.20;;;;;;;22.07;84.84;101280.41;7361814;19;20025;-61
2023/07/09 00:03:53;;;;;;;7.45;1.83;;;;;;;22.08;85.02;101287.41;7361122;19;20102;-61
2023/07/09 00:06:21;;;;;;;5.55;1.95;;;;;;;22.05;84.44;101283.28;7362649;19;20014;-61
2023/07/09 00:08:49;;;;;;;6.03;1.92;;;;;;;22.06;84.35;101287.63;7362419;19;20090;-60
2023/07/09 00:11:17;;;;;;;6.43;2.00;;;;;;;22.03;83.73;101295.28;7361088;19;20179;-62
2023/07/09 00:13:45;;;;;;;6.72;2.47;;;;;;;22.00;83.79;101285.78;7362628;19;20126;-61
2023/07/09 00:16:19;;;;;;;4.15;2.28;;;;;;;21.97;83.96;101290.78;7358953;19;20560;-61
2023/07/09 00:18:48;;;;;;;6.30;1.88;;;;;;;21.94;84.29;101294.69;7359489;19;20014;-62
2023/07/09 00:21:17;;;;;;;5.97;1.98;;;;;;;21.93;83.93;101297.59;7361760;19;20022;-61
2023/07/09 00:23:45;;;;;;;8.30;2.13;;;;;;;21.90;84.30;101300.66;7361515;19;21706;-61
2023/07/09 00:26:14;;;;;;;5.22;2.35;;;;;;;21.88;84.30;101302.75;7358678;19;20022;-61
2023/07/09 00:28:54;;;;;;;6.95;2.28;;;;;;;21.89;84.67;101301.72;7365018;19;20026;-68
2023/07/09 00:31:50;;;;;;;8.57;2.88;;;;;;;21.85;84.37;101298.63;7368139;19;20007;-69
2023/07/09 00:34:20;;;;;;;5.47;2.20;;;;;;;21.84;84.69;101304.25;7359235;19;21188;-69
2023/07/09 00:36:50;;;;;;;5.13;2.15;;;;;;;21.84;85.11;101312.28;7360251;19;20027;-69
2023/07/09 00:39:19;;;;;;;9.40;2.63;;;;;;;21.85;85.17;101305.84;7358577;19;20022;-69
2023/07/09 00:41:50;;;;;;;5.55;2.08;;;;;;;21.85;85.10;101314.72;7361955;19;20019;-66
2023/07/09 00:44:21;;;;;;;4.72;2.35;;;;;;;21.85;84.85;101319.25;7356375;19;20620;-68
2023/07/09 00:46:49;;;;;;;7.50;3.10;;;;;;;21.83;84.79;101326.69;7357101;19;20047;-67
2023/07/09 00:50:18;;;;;;;8.07;3.15;;;;;;;21.81;84.72;101326.09;7359257;19;20018;-67
2023/07/09 00:53:12;;;;;;;8.60;2.33;;;;;;;21.78;85.22;101313.94;7358768;19;20045;-70
2023/07/09 00:56:03;;;;;;;4.22;1.98;;;;;;;21.76;85.40;101310.66;7360404;19;20447;-69
2023/07/09 00:58:53;;;;;;;5.28;2.30;;;;;;;21.71;85.23;101315.84;7358916;19;20023;-65
2023/07/09 01:01:21;;;;;;;6.50;2.05;;;;;;;21.70;85.12;101311.50;7358484;19;20106;-64
2023/07/09 01:03:57;;;;;;;5.28;1.95;;;;;;;21.69;85.55;101332.09;7358711;19;20018;-65
2023/07/09 01:06:32;;;;;;;5.15;2.30;;;;;;;21.70;85.34;101325.72;7360915;19;21051;-65
2023/07/09 01:09:01;;;;;;;8.52;2.40;;;;;;;21.67;85.62;101334.19;7356720;19;20028;-64
2023/07/09 01:11:31;;;;;;;5.90;2.40;;;;;;;21.67;85.73;101326.16;7359642;19;20138;-64
2023/07/09 01:14:02;;;;;;;9.38;2.38;;;;;;;21.67;85.75;101322.66;7359475;19;20036;-64
2023/07/09 01:16:34;;;;;;;4.13;2.33;;;;;;;21.68;85.93;101332.34;7354720;19;20021;-64
2023/07/09 01:19:02;;;;;;;6.90;2.07;;;;;;;21.64;85.23;101331.09;7360265;19;20678;-63
2023/07/09 01:21:29;;;;;;;4.60;2.00;;;;;;;21.58;85.39;101332.81;7360741;19;20268;-64
2023/07/09 01:23:57;;;;;;;4.63;1.92;;;;;;;21.56;85.57;101342.06;7358369;19;20340;-64
2023/07/09 01:26:26;;;;;;;10.32;2.53;;;;;;;21.53;85.53;101337.97;7361441;19;20014;-65
2023/07/09 01:28:55;;;;;;;4.25;1.83;;;;;;;21.54;85.42;101339.59;7362034;19;20697;-65
2023/07/09 01:31:23;;;;;;;7.50;2.17;;;;;;;21.55;86.23;101338.56;7355931;19;20077;-65
2023/07/09 01:33:50;;;;;;;6.85;2.00;;;;;;;21.54;86.11;101334.25;7357894;19;20011;-64
2023/07/09 01:36:23;;;;;;;6.68;1.77;;;;;;;21.53;85.92;101334.47;7357923;19;20014;-64
2023/07/09 01:38:53;;;;;;;;;;;;;;;21.55;85.76;101332.38;7360810;19;20489;-63
2023/07/09 01:41:22;;;;;;;4.78;1.23;;;;;;;21.50;85.78;101334.88;7357735;19;20392;-64
2023/07/09 01:43:49;;;;;;;4.60;1.45;;;;;;;21.49;86.59;101333.22;7360967;19;20003;-64
2023/07/09 01:46:16;;;;;;;5.20;1.27;;;;;;;21.49;86.82;101338.59;7356139;19;20047;-66
2023/07/09 01:48:49;;;;;;;4.57;1.40;;;;;;;21.48;85.50;101327.06;7356527;19;20060;-64
2023/07/09 01:51:18;;;;;;;6.03;1.05;;;;;;;21.48;85.34;101326.25;7359250;19;20025;-65
2023/07/09 01:53:45;;;;;;;7.38;0.90;;;;;;;21.44;84.74;101328.50;7360093;19;20010;-65
2023/07/09 01:56:12;;;;;;;2.53;0.80;;;;;;;21.43;84.44;101334.09;7356632;19;20029;-64
2023/07/09 01:58:41;;;;;;;5.93;0.95;;;;;;;21.39;83.81;101336.34;7357616;19;20081;-64
2023/07/09 02:01:10;;;;;;;3.42;0.80;;;;;;;21.38;84.28;101339.25;7358188;19;20030;-65
2023/07/09 02:03:37;;;;;;;2.40;0.65;;;;;;;21.38;84.54;101340.09;7359424;19;20051;-64
2023/07/09 02:06:09;;;;;;;3.67;0.80;;;;;;;21.37;83.74;101353.69;7360954;19;20999;-65
2023/07/09 02:08:38;;;;;;;3.42;1.05;;;;;;;21.34;83.83;101347.69;7359056;19;20015;-65
2023/07/09 02:11:05;;;;;;;4.35;0.90;;;;;;;21.27;82.73;101351.44;7359317;19;20051;-64
2023/07/09 02:13:33;;;;;;;3.10;0.68;;;;;;;21.24;82.61;101347.31;7358757;19;21225;-64
2023/07/09 02:16:00;;;;;;;4.55;1.25;;;;;;;21.22;82.76;101343.22;7356238;19;20077;-65
2023/07/09 02:18:29;;;;;;;3.60;1.45;;;;;;;21.24;83.64;101346.50;7359680;19;20043;-65
2023/07/09 02:20:56;;;;;;;4.78;1.05;;;;;;;21.26;83.50;101344.44;7359473;19;21017;-65
2023/07/09 02:23:28;;;;;;;3.33;0.90;;;;;;;21.27;83.48;101348.78;7360181;19;20021;-64
2023/07/09 02:25:55;;;;;;;3.13;0.70;;;;;;;21.28;83.88;101347.75;7357031;19;20539;-63
2023/07/09 02:28:22;;;;;;;4.35;0.80;;;;;;;21.26;83.61;101352.47;7363851;19;20019;-66
2023/07/09 02:30:52;;;;;;;3.33;0.60;;;;;;;21.20;82.91;101364.84;7364521;19;20015;-64
2023/07/09 02:33:20;;;;;;;5.00;1.02;;;;;;;21.17;83.49;101367.94;7362818;19;20095;-65
2023/07/09 02:35:48;;;;;;;2.70;1.63;;;;;;;21.17;84.15;101361.78;7362452;19;20014;-68
2023/07/09 02:38:15;;;;;;;2.70;0.80;;;;;;;21.14;83.04;101354.13;7364427;19;21091;-64
2023/07/09 02:40:42;;;;;;;5.15;1.23;;;;;;;21.12;83.44;101348.97;7365828;19;20866;-63
2023/07/09 02:43:09;;;;;;;2.85;0.80;;;;;;;21.08;83.18;101346.94;7362792;19;20018;-65
2023/07/09 02:45:36;;;;;;;5.97;1.30;;;;;;;21.06;82.98;101346.31;7365131;19;20018;-64
2023/07/09 02:48:04;;;;;;;4.32;1.20;;;;;;;21.06;83.59;101357.84;7358429;19;20090;-63
2023/07/09 02:50:31;;;;;;;6.35;0.90;;;;;;;21.06;83.65;101349.81;7361738;19;20006;-65
2023/07/09 02:52:59;;;;;;;4.22;1.23;;;;;;;21.06;83.79;101348.97;7365785;19;20021;-63
2023/07/09 02:55:26;;;;;;;4.40;0.82;;;;;;;21.06;83.93;101348.97;7363861;19;20029;-64
2023/07/09 02:57:53;;;;;;;3.42;0.88;;;;;;;21.02;83.39;101345.09;7361007;19;20003;-65
2023/07/09 03:00:20;;;;;;;4.95;0.77;;;;;;;20.95;82.81;101349.63;7361670;19;20041;-65
2023/07/09 03:02:47;;;;;;;5.47;0.82;;;;;;;20.93;83.44;101341.78;7365743;19;21408;-65
2023/07/09 03:05:15;;;;;;;5.55;0.70;;;;;;;20.93;83.28;101339.09;7362943;19;20018;-64
2023/07/09 03:07:42;;;;;;;4.10;0.60;;;;;;;20.92;82.57;101343.66;7362223;19;20044;-64
2023/07/09 03:10:09;;;;;;;4.63;0.98;;;;;;;20.92;82.60;101341.00;7364296;19;20007;-64
2023/07/09 03:12:37;;;;;;;4.95;0.70;;;;;;;20.88;82.83;101342.41;7363943;19;20015;-64
2023/07/09 03:15:05;;;;;;;5.20;0.68;;;;;;;20.88;82.29;101344.25;7365165;19;20050;-65
2023/07/09 03:17:32;;;;;;;7.65;1.23;;;;;;;20.88;83.13;101347.75;7362194;19;20042;-64
2023/07/09 03:19:59;;;;;;;4.65;0.60;;;;;;;20.90;82.30;101339.53;7358509;19;20585;-65
2023/07/09 03:22:27;;;;;;;4.10;0.73;;;;;;;20.87;82.18;101327.41;7363486;19;20093;-64
2023/07/09 03:24:54;;;;;;;14.38;2.65;;;;;;;20.83;81.60;101323.47;7364250;19;21869;-64
2023/07/09 03:27:21;;;;;;;7.10;1.40;;;;;;;20.81;81.68;101319.38;7362881;19;21135;-63
2023/07/09 03:29:48;;;;;;;4.78;1.10;;;;;;;20.81;82.06;101322.88;7361574;19;20063;-65
2023/07/09 03:32:15;;;;;;;6.53;0.70;;;;;;;20.81;82.19;101325.56;7363610;19;20047;-63
2023/07/09 03:34:43;;;;;;;7.40;1.42;;;;;;;20.79;81.34;101308.88;7362770;19;20018;-64
2023/07/09 03:37:10;;;;;;;4.40;0.82;;;;;;;20.76;80.71;101324.53;7361403;19;20018;-64
2023/07/09 03:39:37;;;;;;;4.13;0.52;;;;;;;20.77;81.64;101339.56;7361571;19;20006;-64
2023/07/09 03:42:05;;;;;;;6.88;0.60;;;;;;;20.77;81.25;101345.75;7364236;19;20037;-63
2023/07/09 03:44:32;;;;;;;7.18;0.88;;;;;;;20.78;80.94;101346.53;7363064;19;20014;-65
2023/07/09 03:46:59;;;;;;;4.93;0.65;;;;;;;20.75;81.08;101347.78;7358949;19;20022;-64
2023/07/09 03:49:27;;;;;;;8.27;0.80;;;;;;;20.73;81.10;101354.34;7360510;19;20459;-64
2023/07/09 03:51:54;;;;;;;4.60;0.82;;;;;;;20.70;81.11;101358.28;7364402;19;20042;-64
2023/07/09 03:54:21;;;;;;;3.42;0.82;;;;;;;20.69;81.03;101372.69;7360617;19;20026;-63
2023/07/09 03:56:52;;;;;;;5.88;0.80;;;;;;;20.67;81.49;101377.41;7365132;19;20021;-63
2023/07/09 03:59:19;;;;;;;5.55;1.35;;;;;;;20.67;82.16;101377.41;7364049;19;20022;-65
2023/07/09 04:01:46;;;;;;;5.53;0.80;;;;;;;20.67;82.07;101374.72;7363745;19;20015;-64
2023/07/09 04:04:13;;;;;;;5.30;0.93;;;;;;;20.68;82.22;101384.41;7359949;19;20024;-64
2023/07/09 04:06:40;;;;;;;3.05;0.90;;;;;;;20.69;82.23;101372.69;7361566;19;20116;-64
2023/07/09 04:09:08;;;;;;;7.05;1.30;;;;;;;20.67;82.49;101372.06;7362820;19;20054;-63
2023/07/09 04:11:35;;;;;;;7.47;1.05;;;;;;;20.68;82.71;101379.06;7361794;19;20022;-64
2023/07/09 04:14:02;;;;;;;4.53;0.95;;;;;;;20.68;83.36;101352.31;7362643;19;20051;-64
2023/07/09 04:16:30;;;;;;;4.80;0.77;;;;;;;20.68;83.81;101363.00;7361010;19;20790;-64
2023/07/09 04:18:57;;;;;;;7.15;0.95;;;;;;;20.68;83.15;101368.34;7363025;19;20022;-63
2023/07/09 04:21:24;;;;;;;4.18;0.65;;;;;;;20.68;83.71;101365.69;7360693;19;20440;-64
2023/07/09 04:23:51;;;;;;;6.35;0.95;;;;;;;20.68;84.06;101367.53;7360156;19;21000;-64
2023/07/09 04:26:18;;;;;;;8.65;1.05;;;;;;;20.65;83.66;101367.94;7363303;19;20035;-64
2023/07/09 04:28:45;;;;;;;8.90;1.00;;;;;;;20.61;83.29;101362.19;7362804;19;20853;-63
2023/07/09 04:31:12;;;;;;;5.68;0.75;;;;;;;20.59;83.35;101363.41;7358898;19;20102;-63
2023/07/09 04:33:40;;;;;;;7.07;0.90;;;;;;;20.56;83.51;101374.53;7361517;19;20610;-65
2023/07/09 04:36:08;;;;;;;5.90;0.73;;;;;;;20.55;83.82;101367.53;7362130;19;20046;-65
2023/07/09 04:38:35;;;;;;;10.55;0.90;;;;;;;20.53;84.06;101361.56;7361234;19;20018;-64
2023/07/09 04:41:03;;;;;;;5.45;0.90;;;;;;;20.52;83.35;101368.75;7362869;19;20889;-64
2023/07/09 04:43:31;;;;;;;6.22;0.80;;;;;;;20.51;83.35;101388.53;7361034;19;21180;-64
2023/07/09 04:45:58;;;;;;;5.65;0.90;;;;;;;20.49;82.78;101395.91;7360012;19;20486;-63
2023/07/09 04:48:26;;;;;;;6.95;0.90;;;;;;;20.47;83.66;101396.09;7357518;19;20019;-63
2023/07/09 04:50:53;;;;;;;6.03;0.80;;;;;;;20.48;84.40;101410.31;7358713;19;20019;-63
2023/07/09 04:53:20;;;;;;;6.10;1.08;;;;;;;20.47;84.09;101417.50;7358394;19;20051;-64
2023/07/09 04:55:48;;;;;;;7.60;0.95;;;;;;;20.46;84.30;101423.91;7362695;19;20021;-64
2023/07/09 04:58:18;;;;;;;4.68;1.00;;;;;;;20.46;85.06;101425.75;7360591;19;20026;-65
2023/07/09 05:00:45;;;;;;;7.15;0.95;;;;;;;20.45;84.91;101422.25;7356699;19;21962;-64
2023/07/09 05:03:13;;;;;;;2.90;0.75;;;;;;;20.45;85.50;101410.72;7360521;19;20018;-64
2023/07/09 05:05:43;;;;;;;3.33;0.68;;;;;;;20.44;85.45;101396.53;7361612;19;20021;-65
2023/07/09 05:08:11;;;;;;;8.13;1.67;;;;;;;20.45;85.32;101387.47;7357776;19;20018;-65
2023/07/09 05:10:42;;;;;;;5.07;1.15;;;;;;;20.45;85.14;101392.00;7360014;19;20015;-65
2023/07/09 05:13:10;;;;;;;6.28;0.60;;;;;;;20.44;85.16;101399.19;7359640;19;20022;-64
2023/07/09 05:15:41;;;;;;;4.63;0.95;;;;;;;20.44;84.98;101393.03;7360424;19;20348;-64
2023/07/09 05:18:08;;;;;;;4.45;0.80;;;;;;;20.42;83.92;101397.75;7357299;19;20051;-64
2023/07/09 05:20:36;;;;;;;9.70;1.00;;;;;;;20.41;84.05;101404.13;7359421;19;20018;-64
2023/07/09 05:23:03;;;;;;;7.57;0.90;;;;;;;20.41;84.33;101412.16;7359332;19;20042;-64
2023/07/09 05:25:31;;;;;;;6.07;0.80;;;;;;;20.41;83.92;101417.50;7360771;19;20029;-65
2023/07/09 05:27:58;;;;;;;3.67;0.70;;;;;;;20.42;84.59;101411.09;7359819;19;20534;-64
2023/07/09 05:30:26;;;;;;;6.18;0.65;;;;;;;20.44;84.32;101417.09;7359497;19;20512;-64
2023/07/09 05:32:55;;;;;;;5.15;0.60;;;;;;;20.42;83.92;101433.31;7359746;19;20025;-64
2023/07/09 05:35:25;;;;;;;5.95;1.45;;;;;;;20.36;83.33;101436.84;7360299;19;20525;-64
2023/07/09 05:37:53;;;;;;;9.07;0.80;;;;;;;20.34;83.62;101436.19;7358005;19;20018;-64
2023/07/09 05:40:21;;;;;;;4.82;0.75;;;;;;;20.39;83.76;101435.59;7358939;19;20557;-64
2023/07/09 05:42:49;;;;;;;5.55;0.82;;;;;;;20.39;83.87;101433.75;7353912;19;20018;-64
2023/07/09 05:45:16;;;;;;;6.88;0.80;;;;;;;20.40;84.13;101432.72;7359209;19;20173;-65
2023/07/09 05:47:43;;;;;;;4.90;0.70;;;;;;;20.41;84.20;101441.56;7358201;19;20014;-64
2023/07/09 05:50:11;;;;;;;6.85;0.60;;;;;;;20.35;83.98;101427.16;7355141;19;20018;-65
2023/07/09 05:52:38;;;;;;;5.90;1.02;;;;;;;20.31;83.85;101435.78;7356912;19;20027;-65
2023/07/09 05:55:06;;;;;;;5.13;0.73;;;;;;;20.29;83.95;101427.09;7360370;19;20018;-64
2023/07/09 05:57:33;;;;;;;5.63;1.13;;;;;;;20.28;84.15;101428.94;7359453;19;21741;-65
2023/07/09 06:00:00;;;;;;;8.98;0.93;;;;;;;20.30;84.60;101426.09;7356593;19;20034;-65
2023/07/09 06:02:27;;;;;;;5.75;0.70;;;;;;;20.29;84.62;101432.44;7361330;19;20014;-65
2023/07/09 06:04:56;;;;;;;6.03;0.82;;;;;;;20.28;85.30;101430.78;7366905;19;20139;-65
2023/07/09 06:07:23;;;;;;;6.65;0.90;;;;;;;20.27;85.95;101439.84;7364210;19;20015;-64
2023/07/09 06:09:52;;;;;;;6.53;0.90;;;;;;;20.25;86.55;101437.38;7366320;19;20379;-64
2023/07/09 06:12:19;;;;;;;6.88;0.82;;;;;;;20.24;86.68;101434.91;7368022;19;20014;-65
2023/07/09 06:14:47;;;;;;;6.63;0.70;;;;;;;20.20;86.36;101442.50;7366840;19;20019;-64
2023/07/09 06:17:14;;;;;;;6.03;0.60;;;;;;;20.16;85.83;101433.25;7365784;19;20151;-66
2023/07/09 06:19:41;;;;;;;7.93;0.85;;;;;;;20.13;86.11;101436.31;7363727;19;20010;-65
2023/07/09 06:22:08;;;;;;;6.45;0.68;;;;;;;20.10;87.08;101433.22;7365736;19;20014;-65
2023/07/09 06:24:35;;;;;;;9.30;0.90;;;;;;;20.06;87.09;101432.81;7362641;19;20048;-66
2023/07/09 06:27:03;;;;;;;7.40;1.20;;;;;;;20.04;87.32;101442.84;7363755;19;20042;-65
2023/07/09 06:29:30;;;;;;;7.95;0.82;;;;;;;20.02;87.54;101458.25;7365262;19;20019;-63
2023/07/09 06:31:57;;;;;;;8.23;1.27;;;;;;;20.01;87.86;101459.28;7363048;19;20034;-66
2023/07/09 06:34:24;;;;;;;7.35;1.98;;;;;;;20.01;87.39;101452.06;7363521;19;20015;-64
2023/07/09 06:36:52;;;;;;;5.25;1.02;;;;;;;20.01;87.53;101454.75;7365571;19;20014;-64
2023/07/09 06:39:19;;;;;;;6.55;1.10;;;;;;;20.03;87.13;101455.38;7364685;19;20015;-64
2023/07/09 06:41:46;;;;;;;7.97;0.90;;;;;;;20.04;86.58;101457.03;7366111;19;20042;-65
2023/07/09 06:44:14;;;;;;;8.50;1.00;;;;;;;20.04;86.59;101465.06;7363353;19;20002;-64
2023/07/09 06:46:41;;;;;;;9.05;0.93;;;;;;;20.03;86.47;101460.72;7365739;19;20003;-64
2023/07/09 06:49:08;;;;;;;10.07;0.90;;;;;;;20.04;87.19;101462.38;7360441;19;20014;-65
2023/07/09 06:51:35;;;;;;;6.18;1.00;;;;;;;20.03;87.12;101454.56;7361748;19;20033;-64
2023/07/09 06:54:04;;;;;;;4.25;0.70;;;;;;;20.01;86.32;101453.94;7364551;19;20014;-65
2023/07/09 06:56:32;;;;;;;4.22;0.90;;;;;;;20.02;86.49;101444.88;7366688;19;20049;-64
2023/07/09 06:58:59;;;;;;;6.30;1.25;;;;;;;20.01;86.07;101449.41;7362798;19;20018;-64
2023/07/09 07:01:26;;;;;;;5.97;0.70;;;;;;;20.05;85.74;101456.03;7364575;19;20550;-64
2023/07/09 07:03:53;;;;;;;5.35;1.42;;;;;;;20.05;85.80;101455.19;7362840;19;20487;-66
2023/07/09 07:06:20;;;;;;;4.90;0.80;;;;;;;20.03;85.65;101468.75;7365348;19;20018;-65
2023/07/09 07:08:48;;;;;;;4.50;0.77;;;;;;;20.06;86.09;101468.34;7364806;19;20016;-64
2023/07/09 07:11:15;;;;;;;10.27;1.23;;;;;;;20.10;85.98;101463.44;7364947;19;20031;-64
2023/07/09 07:13:43;;;;;;;8.40;0.90;;;;;;;20.12;85.78;101466.72;7362709;19;20031;-65
2023/07/09 07:16:12;;;;;;;12.40;0.75;;;;;;;20.12;85.96;101463.22;7361181;19;20054;-64
2023/07/09 07:18:39;;;;;;;14.05;1.67;;;;;;;20.13;85.82;101470.22;7360709;19;20025;-63
2023/07/09 07:21:07;;;;;;;8.27;1.13;;;;;;;20.13;85.90;101486.25;7361598;19;20022;-64
2023/07/09 07:23:34;;;;;;;8.63;1.33;;;;;;;20.13;85.54;101508.47;7361244;19;20018;-65
2023/07/09 07:26:01;;;;;;;9.75;1.13;;;;;;;20.14;85.83;101525.31;7364791;19;20022;-64
2023/07/09 07:28:30;;;;;;;6.13;0.90;;;;;;;20.14;85.85;101546.69;7364847;19;20049;-65
2023/07/09 07:30:59;;;;;;;9.50;0.93;;;;;;;20.13;86.36;101550.38;7361669;19;20062;-64
2023/07/09 07:33:26;;;;;;;7.53;0.90;;;;;;;20.11;85.24;101544.44;7362290;19;20014;-65
2023/07/09 07:35:53;;;;;;;5.30;1.08;;;;;;;20.13;85.21;101543.19;7363218;19;20579;-65
2023/07/09 07:38:41;;;;;;;8.48;0.93;;;;;;;20.19;85.50;101546.94;7361964;19;20010;-64
2023/07/09 07:41:10;;;;;;;6.85;1.00;;;;;;;20.21;85.71;101527.03;7360158;19;20617;-64
2023/07/09 07:43:38;;;;;;;7.35;0.85;;;;;;;20.20;85.35;101508.50;7364457;19;20022;-64
2023/07/09 07:46:06;;;;;;;5.18;0.88;;;;;;;20.19;85.30;101488.13;7360843;19;20585;-64
2023/07/09 07:48:34;;;;;;;5.20;1.02;;;;;;;20.18;85.34;101460.56;7359683;19;20014;-64
2023/07/09 07:51:03;;;;;;;6.93;0.80;;;;;;;20.16;84.76;101459.16;7362005;19;20502;-65
2023/07/09 07:53:31;;;;;;;8.70;0.85;;;;;;;20.16;84.58;101462.66;7359328;19;20022;-64
2023/07/09 07:56:01;;;;;;;6.70;0.93;;;;;;;20.21;84.50;101472.72;7364065;19;20463;-67
2023/07/09 07:58:32;;;;;;;7.95;1.10;;;;;;;20.37;84.64;101481.22;7362382;19;20022;-64
2023/07/09 08:01:00;;;;;;;6.30;1.00;;;;;;;20.61;83.58;101479.88;7363828;19;20011;-65
2023/07/09 08:03:28;;;;;;;7.13;0.70;;;;;;;20.80;82.36;101473.72;7362360;19;20018;-65
2023/07/09 08:05:55;;;;;;;8.27;0.80;;;;;;;21.03;80.71;101472.53;7364145;19;20029;-65
2023/07/09 08:08:26;;;;;;;6.80;0.90;;;;;;;21.26;80.27;101465.75;7362497;19;20017;-66
2023/07/09 08:11:04;;;;;;;5.82;0.82;;;;;;;21.40;79.14;101457.69;7359992;19;20897;-66
2023/07/09 08:13:34;;;;;;;9.45;2.03;;;;;;;21.49;79.69;101462.63;7362395;19;20026;-66
2023/07/09 08:16:02;;;;;;;8.48;1.10;;;;;;;21.50;79.49;101491.06;7360175;19;20018;-65
2023/07/09 08:18:30;;;;;;;9.32;0.77;;;;;;;21.43;78.44;101505.50;7359757;19;20007;-64
2023/07/09 08:20:59;;;;;;;9.82;1.08;;;;;;;21.41;79.37;101497.66;7363453;19;20365;-64
2023/07/09 08:23:26;;;;;;;4.28;1.00;;;;;;;21.37;77.95;101491.09;7359743;19;20106;-64
2023/07/09 08:25:56;;;;;;;7.70;0.80;;;;;;;21.33;76.80;101493.31;7363220;19;20022;-65
2023/07/09 08:28:23;;;;;;;4.95;0.60;;;;;;;21.29;77.19;101494.78;7367016;19;20010;-66
2023/07/09 08:30:53;;;;;;;9.55;0.80;;;;;;;21.30;77.50;101491.06;7364496;19;20067;-66
2023/07/09 08:33:22;;;;;;;6.88;0.73;;;;;;;21.29;77.58;101507.34;7360096;19;20686;-64
2023/07/09 08:35:50;;;;;;;6.18;0.68;;;;;;;21.29;75.96;101510.00;7361405;19;20045;-64
2023/07/09 08:38:18;;;;;;;12.95;0.80;;;;;;;21.29;76.36;101518.88;7359148;19;20018;-64
2023/07/09 08:40:57;;;;;;;9.00;0.80;;;;;;;21.30;75.50;101519.69;7359619;19;20669;-65
2023/07/09 08:43:36;;;;;;;7.15;0.85;;;;;;;21.29;74.82;101508.16;7362215;19;20022;-65
2023/07/09 08:46:12;;;;;;;7.47;0.90;;;;;;;21.28;74.33;101495.81;7356234;19;20090;-66
2023/07/09 08:48:44;;;;;;;6.65;0.63;;;;;;;21.28;75.17;101481.63;7356281;19;20026;-65
2023/07/09 08:51:17;;;;;;;9.27;0.70;;;;;;;21.26;74.62;101468.44;7359581;19;20033;-65
2023/07/09 08:53:55;;;;;;;10.70;1.83;;;;;;;21.24;73.02;101472.31;7356023;19;20025;-65
2023/07/09 08:56:23;;;;;;;9.90;0.85;;;;;;;21.25;72.44;101468.63;7362139;19;20006;-65
2023/07/09 08:58:54;;;;;;;8.98;1.23;;;;;;;21.24;72.47;101441.03;7360622;19;20026;-65
2023/07/09 09:01:32;;;;;;;6.95;0.73;;;;;;;21.27;72.25;101440.63;7359828;19;20353;-64
2023/07/09 09:04:14;;;;;;;9.07;1.40;;;;;;;21.30;73.29;101434.03;7356958;19;20022;-67
2023/07/09 09:06:44;;;;;;;8.32;0.70;;;;;;;21.30;71.30;101437.53;7360808;19;20013;-65
2023/07/09 09:09:14;;;;;;;9.35;0.90;;;;;;;21.35;71.00;101439.56;7360597;19;20021;-65
2023/07/09 09:11:53;;;;;;;3.88;0.50;;;;;;;21.42;70.94;101463.69;7362340;19;20109;-64
2023/07/09 09:14:33;;;;;;;6.80;0.85;;;;;;;21.46;68.99;101489.00;7360477;19;20026;-65
2023/07/09 09:17:04;;;;;;;5.85;0.50;;;;;;;21.46;68.90;101510.44;7359751;19;20014;-64
2023/07/09 09:19:38;;;;;;;6.60;0.60;;;;;;;21.49;68.83;101521.53;7359858;19;20143;-63
2023/07/09 09:22:09;;;;;;;6.13;0.52;;;;;;;21.50;68.33;101522.38;7361305;19;20026;-65
2023/07/09 09:24:41;;;;;;;5.25;0.77;;;;;;;21.53;67.97;101516.63;7358408;19;20102;-65
2023/07/09 09:27:08;;;;;;;2.80;0.50;;;;;;;21.58;68.84;101524.84;7360787;19;21023;-65
2023/07/09 09:29:36;;;;;;;4.72;0.50;;;;;;;21.62;68.34;101524.22;7359624;19;20014;-65
2023/07/09 09:32:24;;;;;;;11.35;0.60;;;;;;;21.64;68.46;101522.16;7360263;19;20022;-65
2023/07/09 09:34:53;;;;;;;6.45;0.70;;;;;;;21.64;68.35;101535.53;7359495;19;20018;-64
2023/07/09 09:37:28;;;;;;;3.47;0.60;;;;;;;21.66;67.75;101522.78;7359837;19;20015;-65
2023/07/09 09:39:56;;;;;;;4.40;0.50;;;;;;;21.69;68.11;101516.97;7361973;19;20019;-63
2023/07/09 09:42:43;;;;;;;5.93;1.08;;;;;;;21.70;67.07;101507.09;7369978;19;20018;-64
2023/07/09 09:45:15;;;;;;;4.82;0.70;;;;;;;21.70;66.80;101505.25;7364073;19;20566;-64
2023/07/09 09:47:44;;;;;;;8.43;0.90;;;;;;;21.72;66.53;101515.75;7363906;19;20115;-64
2023/07/09 09:50:19;;;;;;;3.75;0.40;;;;;;;21.73;66.07;101528.13;7364538;19;21355;-64
2023/07/09 09:52:48;;;;;;;3.80;0.65;;;;;;;21.70;63.88;101532.03;7366169;19;20039;-66
2023/07/09 09:55:19;;;;;;;2.75;0.32;;;;;;;21.67;61.57;101531.63;7363212;19;20086;-65
2023/07/09 09:57:50;;;;;;;3.53;0.38;;;;;;;21.70;63.06;101532.03;7364954;19;20534;-64
2023/07/09 10:00:19;;;;;;;4.47;0.40;;;;;;;21.72;63.17;101527.31;7362996;19;20045;-66
2023/07/09 10:02:47;;;;;;;3.58;0.43;;;;;;;21.77;64.33;101532.84;7369813;19;20428;-64
2023/07/09 10:05:16;;;;;;;7.38;0.50;;;;;;;21.76;62.09;101531.22;7366672;19;20018;-63
2023/07/09 10:07:55;;;;;;;6.60;0.40;;;;;;;21.71;60.01;101533.69;7364392;19;20487;-64
2023/07/09 10:10:28;;;;;;;3.95;0.43;;;;;;;21.69;60.65;101518.84;7366461;19;21269;-65
2023/07/09 10:13:15;;;;;;;7.13;0.60;;;;;;;21.67;60.02;101512.88;7369344;19;20383;-66
2023/07/09 10:16:01;;;;;;;2.15;0.20;;;;;;;21.70;59.30;101507.91;7360949;19;20011;-65
2023/07/09 10:18:43;;;;;;;5.05;0.40;;;;;;;21.76;60.13;101514.31;7363509;19;20398;-64
2023/07/09 10:21:18;;;;;;;3.40;0.95;;;;;;;21.81;58.75;101519.03;7364953;19;20026;-65
2023/07/09 10:24:07;;;;;;;2.90;0.32;;;;;;;21.83;58.65;101530.38;7364327;19;20023;-65
2023/07/09 10:26:43;;;;;;;3.88;0.50;;;;;;;21.88;60.18;101538.63;7364702;19;20543;-64
2023/07/09 10:29:29;;;;;;;5.95;0.38;;;;;;;21.91;59.84;101530.13;7365393;19;20671;-65
2023/07/09 10:32:21;;;;;;;6.65;0.30;;;;;;;21.94;60.31;101530.56;7365215;19;20021;-65
2023/07/09 10:35:04;;;;;;;6.88;0.50;;;;;;;21.96;62.01;101528.50;7361858;19;20014;-65
2023/07/09 10:37:38;;;;;;;6.40;0.40;;;;;;;21.97;59.57;101529.34;7366215;19;20025;-65
2023/07/09 10:40:11;;;;;;;4.07;0.43;;;;;;;21.96;59.68;101507.06;7362294;19;20035;-65
2023/07/09 10:42:42;;;;;;;4.03;0.40;;;;;;;22.00;62.12;101500.25;7365139;19;20028;-65
2023/07/09 10:45:13;;;;;;;5.78;0.50;;;;;;;22.03;61.10;101499.00;7361944;19;20018;-65
2023/07/09 10:47:43;;;;;;;4.25;0.50;;;;;;;;;;7364170;19;20389;-64
2023/07/09 10:50:18;;;;;;;3.65;0.30;;;;;;;22.18;60.75;101486.16;7361225;19;20022;-64
2023/07/09 10:52:51;;;;;;;4.03;0.45;;;;;;;22.24;60.18;101487.19;7367209;19;20006;-64
2023/07/09 10:55:35;;;;;;;4.65;0.40;;;;;;;22.32;61.07;101486.91;7363258;19;20015;-64
2023/07/09 10:58:26;;;;;;;6.10;0.60;;;;;;;22.39;60.30;101495.78;7364558;19;20021;-65
2023/07/09 11:00:54;;;;;;;5.70;0.50;;;;;;;22.46;56.92;101504.59;7364408;19;20021;-65
2023/07/09 11:03:42;;;;;;;2.90;0.40;;;;;;;22.53;53.64;101491.97;7365319;19;20028;-66
2023/07/09 11:06:18;;;;;;;3.28;0.22;;;;;;;22.58;52.83;101490.28;7362656;19;20022;-64
2023/07/09 11:08:50;;;;;;;3.40;0.22;;;;;;;22.65;54.68;101494.81;7367833;19;20018;-65
2023/07/09 11:11:30;;;;;;;3.72;0.40;;;;;;;22.72;55.19;101506.34;7363464;19;20535;-65
2023/07/09 11:14:05;;;;;;;2.22;0.28;;;;;;;22.81;57.83;101518.44;7365661;19;20405;-64
2023/07/09 11:16:38;;;;;;;6.88;0.55;;;;;;;22.87;60.06;101523.78;7363572;19;20359;-65
2023/07/09 11:19:13;;;;;;;3.30;0.40;;;;;;;22.87;56.69;101520.28;7361227;19;20441;-64
2023/07/09 11:21:58;;;;;;;4.63;0.45;;;;;;;22.90;56.54;101522.53;7363624;19;20498;-65
2023/07/09 11:24:33;;;;;;;4.25;0.50;;;;;;;22.90;55.37;101526.06;7360296;19;20371;-65
2023/07/09 11:27:01;;;;;;;4.55;0.45;;;;;;;22.91;56.13;101529.53;7362192;19;20027;-66
2023/07/09 11:29:29;;;;;;;4.03;0.45;;;;;;;22.90;55.26;101526.06;7363502;19;20462;-64
2023/07/09 11:32:08;;;;;;;3.80;0.40;;;;;;;22.84;53.03;101526.91;7363021;19;20011;-64
2023/07/09 11:34:46;;;;;;;5.50;0.55;;;;;;;22.80;54.79;101530.25;7362326;19;20010;-65
2023/07/09 11:37:15;;;;;;;5.13;0.40;;;;;;;22.81;56.30;101526.50;7361695;19;20046;-65
2023/07/09 11:39:46;;;;;;;3.78;0.50;;;;;;;22.82;56.28;101522.78;7362897;19;20014;-65
2023/07/09 11:42:23;;;;;;;4.18;0.45;;;;;;;22.84;57.72;101526.91;7363349;19;21725;-64